Time;durP1;ratioP1;P1;durP2;ratioP2;P2;SDS_P1;SDS_P2;PMS_P1;PMS_P2;Temp;Humidity;BMP_temperature;BMP_pressure;BME280_temperature;BME280_humidity;BME280_pressure;Samples;Min_cycle;Max_cycle;Signal;HPM_P1;HPM_P2
2023/10/11 00:03:34;;;;;;;11.5;7.7;;;;;;;11.8;88.13;;;;;
2023/10/11 00:14:39;;;;;;;11.5;7.7;;;;;;;11.5;87.62;;;;;
2023/10/11 00:24:34;;;;;;;11.5;7.7;;;;;;;11.19;87.27;;;;;
2023/10/11 00:35:34;;;;;;;13.9;8.8;;;;;;;10.88;87.45;;;;;
2023/10/11 00:46:36;;;;;;;13.9;8.8;;;;;;;10.68;87.74;;;;;
2023/10/11 00:56:34;;;;;;;13.9;8.8;;;;;;;10.56;88.16;;;;;
2023/10/11 01:07:37;;;;;;;14.7;7.4;;;;;;;10.48;88.53;;;;;
2023/10/11 01:18:34;;;;;;;14.7;7.4;;;;;;;10.55;88.64;;;;;
2023/10/11 01:28:34;;;;;;;14.7;7.4;;;;;;;10.7;88.98;;;;;
2023/10/11 01:39:34;;;;;;;12.2;6.5;;;;;;;10.78;89.11;;;;;
2023/10/11 01:49:39;;;;;;;12.2;6.5;;;;;;;10.91;89.37;;;;;
2023/10/11 02:00:34;;;;;;;13.2;8;;;;;;;10.93;89;;;;;
2023/10/11 02:11:34;;;;;;;13.2;8;;;;;;;11.06;89.22;;;;;
2023/10/11 02:22:34;;;;;;;13.2;8;;;;;;;11.22;89.26;;;;;
2023/10/11 02:32:38;;;;;;;13.8;8.7;;;;;;;11.35;89;;;;;
2023/10/11 02:42:36;;;;;;;13.8;8.7;;;;;;;11.43;88.84;;;;;
2023/10/11 02:52:36;;;;;;;13.8;8.7;;;;;;;11.45;88.42;;;;;
2023/10/11 03:03:38;;;;;;;13.3;8.2;;;;;;;11.56;88.68;;;;;
2023/10/11 03:13:41;;;;;;;13.3;8.2;;;;;;;11.77;89.4;;;;;
2023/10/11 03:24:40;;;;;;;13.3;8.2;;;;;;;12.34;91.7;;;;;
2023/10/11 03:35:38;;;;;;;9.7;6.9;;;;;;;13.11;90.53;;;;;
2023/10/11 03:45:36;;;;;;;9.7;6.9;;;;;;;13.55;88.97;;;;;
2023/10/11 03:55:45;;;;;;;9.7;6.9;;;;;;;13.82;88.21;;;;;
2023/10/11 04:05:36;;;;;;;8;6;;;;;;;13.98;87.62;;;;;
2023/10/11 04:15:39;;;;;;;8;6;;;;;;;14.24;86.75;;;;;
2023/10/11 04:26:37;;;;;;;8;6;;;;;;;14.46;85.95;;;;;
2023/10/11 04:36:42;;;;;;;12.1;6.4;;;;;;;14.62;85.26;;;;;
2023/10/11 04:47:50;;;;;;;12.1;6.4;;;;;;;14.7;84.85;;;;;
2023/10/11 04:58:42;;;;;;;12.1;6.4;;;;;;;14.83;84.82;;;;;
2023/10/11 05:08:51;;;;;;;8.1;4.8;;;;;;;14.87;84.83;;;;;
2023/10/11 05:19:35;;;;;;;8.1;4.8;;;;;;;14.95;84.76;;;;;
2023/10/11 05:29:52;;;;;;;10.9;5.4;;;;;;;15.01;84.59;;;;;
2023/10/11 05:50:54;;;;;;;10.9;5.4;;;;;;;15.37;83.56;;;;;
2023/10/11 06:01:36;;;;;;;8.7;4.8;;;;;;;15.58;82.58;;;;;
2023/10/11 06:12:35;;;;;;;8.7;4.8;;;;;;;15.82;82.27;;;;;
2023/10/11 06:23:38;;;;;;;8.7;4.8;;;;;;;16.01;81.67;;;;;
2023/10/11 06:33:44;;;;;;;6.8;3.9;;;;;;;16.3;81.39;;;;;
2023/10/11 06:43:35;;;;;;;6.8;3.9;;;;;;;16.6;80.13;;;;;
2023/10/11 06:53:36;;;;;;;6.8;3.9;;;;;;;16.98;79.67;;;;;
2023/10/11 07:03:38;;;;;;;7.4;4.2;;;;;;;17.17;78.46;;;;;
2023/10/11 07:14:37;;;;;;;7.4;4.2;;;;;;;16.85;78.56;;;;;
2023/10/11 07:25:36;;;;;;;7.4;4.2;;;;;;;16.56;79.42;;;;;
2023/10/11 07:36:36;;;;;;;16.6;10.9;;;;;;;16.54;78.41;;;;;
2023/10/11 07:47:35;;;;;;;16.6;10.9;;;;;;;16.7;78.98;;;;;
2023/10/11 07:58:36;;;;;;;16.6;10.9;;;;;;;17.07;78.51;;;;;
2023/10/11 08:09:45;;;;;;;16.8;9.5;;;;;;;17.59;77.14;;;;;
2023/10/11 08:19:36;;;;;;;16.8;9.5;;;;;;;18.01;76.65;;;;;
2023/10/11 08:30:36;;;;;;;12.6;8.4;;;;;;;18.59;76;;;;;
2023/10/11 08:40:36;;;;;;;12.6;8.4;;;;;;;19.02;75.57;;;;;
2023/10/11 08:50:35;;;;;;;12.6;8.4;;;;;;;19.47;73.67;;;;;
2023/10/11 09:00:36;;;;;;;10.7;7.2;;;;;;;19.98;66.83;;;;;
2023/10/11 09:11:35;;;;;;;10.7;7.2;;;;;;;20.42;67.04;;;;;
2023/10/11 09:21:35;;;;;;;10.7;7.2;;;;;;;20.7;65.15;;;;;
2023/10/11 09:32:36;;;;;;;9.6;4.8;;;;;;;21.02;63.96;;;;;
2023/10/11 09:42:35;;;;;;;9.6;4.8;;;;;;;21.35;62.32;;;;;
2023/10/11 09:52:36;;;;;;;9.6;4.8;;;;;;;21.69;57.01;;;;;
2023/10/11 10:02:36;;;;;;;10.1;5.2;;;;;;;21.95;54.19;;;;;
2023/10/11 10:12:40;;;;;;;10.1;5.2;;;;;;;22.22;53.08;;;;;
2023/10/11 10:23:38;;;;;;;10.1;5.2;;;;;;;22.52;52.02;;;;;
2023/10/11 10:34:41;;;;;;;8.6;5.3;;;;;;;22.7;52.2;;;;;
2023/10/11 10:44:36;;;;;;;8.6;5.3;;;;;;;22.92;52.26;;;;;
2023/10/11 10:55:36;;;;;;;8.6;5.3;;;;;;;23.24;52.97;;;;;
2023/10/11 11:06:36;;;;;;;11;5.3;;;;;;;23.75;52.24;;;;;
2023/10/11 11:16:39;;;;;;;11;5.3;;;;;;;23.91;51;;;;;
2023/10/11 11:27:40;;;;;;;11;5.3;;;;;;;23.97;51.02;;;;;
2023/10/11 11:38:37;;;;;;;9.7;4.9;;;;;;;23.76;51.18;;;;;
2023/10/11 11:49:36;;;;;;;9.7;4.9;;;;;;;23.79;52.14;;;;;
2023/10/11 11:59:36;;;;;;;9.7;4.9;;;;;;;23.65;51.94;;;;;
2023/10/11 12:09:36;;;;;;;11.5;5.9;;;;;;;24.03;52.15;;;;;
2023/10/11 12:20:36;;;;;;;11.5;5.9;;;;;;;24.07;51.27;;;;;
2023/10/11 12:30:36;;;;;;;9;4.2;;;;;;;23.78;48.65;;;;;
2023/10/11 12:40:36;;;;;;;9;4.2;;;;;;;23.88;49.55;;;;;
2023/10/11 12:50:36;;;;;;;9;4.2;;;;;;;24.09;49.36;;;;;
2023/10/11 13:00:37;;;;;;;10.3;3.7;;;;;;;24.33;48.42;;;;;
2023/10/11 13:10:36;;;;;;;10.3;3.7;;;;;;;24.61;51.85;;;;;
2023/10/11 13:21:36;;;;;;;10.3;3.7;;;;;;;24.52;52.4;;;;;
2023/10/11 13:31:40;;;;;;;7.5;3.9;;;;;;;24.19;51.79;;;;;
2023/10/11 13:42:37;;;;;;;7.5;3.9;;;;;;;23.49;54.74;;;;;
2023/10/11 13:52:36;;;;;;;7.5;3.9;;;;;;;22.8;56.17;;;;;
2023/10/11 14:02:37;;;;;;;10.9;4.4;;;;;;;22.49;56.75;;;;;
2023/10/11 14:13:38;;;;;;;10.9;4.4;;;;;;;22.13;57.25;;;;;
2023/10/11 14:23:36;;;;;;;10.9;4.4;;;;;;;22.03;56.67;;;;;
2023/10/11 14:34:36;;;;;;;10.6;4.8;;;;;;;21.87;57.48;;;;;
2023/10/11 14:45:36;;;;;;;10.6;4.8;;;;;;;21.69;58.26;;;;;
2023/10/11 14:56:36;;;;;;;10.6;4.8;;;;;;;21.36;58.16;;;;;
2023/10/11 15:07:40;;;;;;;10.5;5.2;;;;;;;20.96;58.97;;;;;
2023/10/11 15:18:36;;;;;;;10.5;5.2;;;;;;;20.41;61.12;;;;;
2023/10/11 15:28:36;;;;;;;10.5;5.2;;;;;;;19.94;62.68;;;;;
2023/10/11 15:38:36;;;;;;;11.3;4.9;;;;;;;19.46;64.12;;;;;
2023/10/11 15:49:36;;;;;;;11.3;4.9;;;;;;;19.04;64.98;;;;;
2023/10/11 15:59:37;;;;;;;11.3;4.9;;;;;;;18.53;67.07;;;;;
2023/10/11 16:09:36;;;;;;;13.7;6.3;;;;;;;18.47;67.19;;;;;
2023/10/11 16:20:36;;;;;;;13.7;6.3;;;;;;;18.66;65.68;;;;;
2023/10/11 16:31:37;;;;;;;11.3;6.4;;;;;;;18.61;65.29;;;;;
2023/10/11 16:41:36;;;;;;;11.3;6.4;;;;;;;18.46;66.37;;;;;
2023/10/11 16:51:37;;;;;;;11.3;6.4;;;;;;;18.5;65.77;;;;;
2023/10/11 17:01:36;;;;;;;12.3;6.7;;;;;;;18.28;66.77;;;;;
2023/10/11 17:12:36;;;;;;;12.3;6.7;;;;;;;18.4;64.68;;;;;
2023/10/11 17:22:36;;;;;;;12.3;6.7;;;;;;;18.31;64.35;;;;;
2023/10/11 17:32:36;;;;;;;10.6;5.8;;;;;;;18.24;64.71;;;;;
2023/10/11 17:42:36;;;;;;;10.6;5.8;;;;;;;18.17;64.85;;;;;
2023/10/11 17:52:37;;;;;;;10.6;5.8;;;;;;;18.07;64.68;;;;;
2023/10/11 18:03:36;;;;;;;13.1;6.3;;;;;;;17.75;66.28;;;;;
2023/10/11 18:13:36;;;;;;;13.1;6.3;;;;;;;17.51;66.91;;;;;
2023/10/11 18:23:36;;;;;;;13.1;6.3;;;;;;;17.23;67.31;;;;;
2023/10/11 18:34:37;;;;;;;12.8;6.7;;;;;;;16.86;68.4;;;;;
2023/10/11 19:35:55;;;;;;;12;6.1;;;;;;;16.33;71.83;;;;;
2023/10/11 19:45:55;;;;;;;12;6.1;;;;;;;16.33;71.82;;;;;
2023/10/11 19:55:55;;;;;;;12;6.1;;;;;;;16.24;72.01;;;;;
2023/10/11 20:05:55;;;;;;;11.2;7.4;;;;;;;16.08;72.19;;;;;
2023/10/11 20:15:55;;;;;;;11.2;7.4;;;;;;;16.01;72.29;;;;;
2023/10/11 20:25:55;;;;;;;11.2;7.4;;;;;;;15.76;72.75;;;;;
2023/10/11 20:36:56;;;;;;;13.1;6.6;;;;;;;15.55;73.13;;;;;
2023/10/11 20:46:55;;;;;;;13.1;6.6;;;;;;;15.46;74.25;;;;;
2023/10/11 20:58:06;;;;;;;;;;;;;;;;;;;;;
2023/10/11 21:08:56;;;;;;;;;;;;;;;;;;;;;
2023/10/11 21:19:56;;;;;;;;;;;;;;;;;;;;;
2023/10/11 21:30:56;;;;;;;;;;;;;;;;;;;;;
2023/10/11 21:40:55;;;;;;;;;;;;;;;;;;;;;
2023/10/11 21:51:55;;;;;;;19.8;5.9;;;;;;;15.45;75.81;;;;;
2023/10/11 22:01:55;;;;;;;19.8;5.9;;;;;;;15.32;75.32;;;;;
2023/10/11 22:12:55;;;;;;;17;7;;;;;;;15.37;76.08;;;;;
2023/10/11 22:22:56;;;;;;;17;7;;;;;;;15.47;76.35;;;;;
2023/10/11 22:32:57;;;;;;;17;7;;;;;;;15.56;75.98;;;;;
2023/10/11 22:43:55;;;;;;;13.7;6.4;;;;;;;15.54;76.43;;;;;
2023/10/11 22:53:56;;;;;;;13.7;6.4;;;;;;;15.41;75.95;;;;;
2023/10/11 23:03:56;;;;;;;13.7;6.4;;;;;;;15.31;76.35;;;;;
2023/10/11 23:14:58;;;;;;;11.3;5.3;;;;;;;15.1;77.04;;;;;
2023/10/11 23:25:57;;;;;;;11.3;5.3;;;;;;;14.93;77.93;;;;;
2023/10/11 23:36:55;;;;;;;11.3;5.3;;;;;;;14.73;78.13;;;;;
2023/10/11 23:46:56;;;;;;;11.2;5.8;;;;;;;14.49;78.49;;;;;
2023/10/11 23:58:04;;;;;;;11.2;5.8;;;;;;;14.47;79.57;;;;;
